Airport View

Enter AWOS ICAO identifier for current METAR.

ex. KFNL

KRWV 120515Z AUTO 09003KT 10SM CLR 05/01 A3042 RMK AO2 T00530009

12 Dec 2019 05:33

Frequency: 118.35

Phone: 979-567-6784

Other Area AWOS: KCLL - KLHB - KCFD - K11R

TAF KCLL 112320Z 1200/1224 VRB04KT P6SM SKC FM121100 09003KT P6SM SCT035 BKN250 FM121200 10004KT P6SM BKN025 BKN250 FM121700 15006KT P6SM SCT030 BKN250